sensor_id;sensor_type;location;lat;lon;timestamp;P1;durP1;ratioP1;P2;durP2;ratioP2
35576;SDS011;21680;52.400;16.920;2023-04-12T00:01:23;13.70;;;6.10;;
35576;SDS011;21680;52.400;16.920;2023-04-12T00:03:48;12.70;;;5.40;;
35576;SDS011;21680;52.400;16.920;2023-04-12T00:06:17;9.40;;;4.50;;
35576;SDS011;21680;52.400;16.920;2023-04-12T00:08:43;11.30;;;6.10;;
35576;SDS011;21680;52.400;16.920;2023-04-12T00:11:10;10.70;;;4.60;;
35576;SDS011;21680;52.400;16.920;2023-04-12T00:13:36;10.40;;;4.90;;
35576;SDS011;21680;52.400;16.920;2023-04-12T00:16:01;13.70;;;6.20;;
35576;SDS011;21680;52.400;16.920;2023-04-12T00:18:26;8.30;;;4.40;;
35576;SDS011;21680;52.400;16.920;2023-04-12T00:20:52;14.60;;;4.30;;
35576;SDS011;21680;52.400;16.920;2023-04-12T00:23:18;10.00;;;5.20;;
35576;SDS011;21680;52.400;16.920;2023-04-12T00:25:44;10.00;;;5.40;;
35576;SDS011;21680;52.400;16.920;2023-04-12T00:28:09;10.50;;;5.60;;
35576;SDS011;21680;52.400;16.920;2023-04-12T00:30:35;11.80;;;6.10;;
35576;SDS011;21680;52.400;16.920;2023-04-12T00:33:01;9.90;;;5.60;;
35576;SDS011;21680;52.400;16.920;2023-04-12T00:35:26;14.20;;;5.50;;
35576;SDS011;21680;52.400;16.920;2023-04-12T00:37:51;10.00;;;5.40;;
35576;SDS011;21680;52.400;16.920;2023-04-12T00:40:17;11.80;;;5.90;;
35576;SDS011;21680;52.400;16.920;2023-04-12T00:42:42;12.60;;;6.10;;
35576;SDS011;21680;52.400;16.920;2023-04-12T00:45:08;16.10;;;5.80;;
35576;SDS011;21680;52.400;16.920;2023-04-12T00:47:34;21.90;;;7.10;;
35576;SDS011;21680;52.400;16.920;2023-04-12T00:50:01;13.00;;;6.10;;
35576;SDS011;21680;52.400;16.920;2023-04-12T00:52:28;11.10;;;5.50;;
35576;SDS011;21680;52.400;16.920;2023-04-12T00:54:58;15.10;;;5.50;;
35576;SDS011;21680;52.400;16.920;2023-04-12T00:57:34;10.20;;;4.90;;
35576;SDS011;21680;52.400;16.920;2023-04-12T01:00:04;10.10;;;5.50;;
35576;SDS011;21680;52.400;16.920;2023-04-12T01:02:33;11.40;;;5.30;;
35576;SDS011;21680;52.400;16.920;2023-04-12T01:04:59;17.70;;;5.60;;
35576;SDS011;21680;52.400;16.920;2023-04-12T01:07:36;14.20;;;5.60;;
35576;SDS011;21680;52.400;16.920;2023-04-12T01:13:02;12.20;;;5.70;;
35576;SDS011;21680;52.400;16.920;2023-04-12T01:15:36;14.90;;;6.20;;
35576;SDS011;21680;52.400;16.920;2023-04-12T01:18:08;12.90;;;5.90;;
35576;SDS011;21680;52.400;16.920;2023-04-12T01:20:42;16.30;;;7.20;;
35576;SDS011;21680;52.400;16.920;2023-04-12T01:23:33;14.30;;;6.20;;
35576;SDS011;21680;52.400;16.920;2023-04-12T01:29:00;14.30;;;6.10;;
35576;SDS011;21680;52.400;16.920;2023-04-12T01:31:28;11.40;;;5.90;;
35576;SDS011;21680;52.400;16.920;2023-04-12T01:33:56;16.80;;;6.30;;
35576;SDS011;21680;52.400;16.920;2023-04-12T01:36:24;10.70;;;4.90;;
35576;SDS011;21680;52.400;16.920;2023-04-12T01:38:51;13.20;;;6.60;;
35576;SDS011;21680;52.400;16.920;2023-04-12T01:41:18;13.40;;;6.20;;
35576;SDS011;21680;52.400;16.920;2023-04-12T01:43:45;8.40;;;4.50;;
35576;SDS011;21680;52.400;16.920;2023-04-12T01:46:12;10.60;;;5.60;;
35576;SDS011;21680;52.400;16.920;2023-04-12T01:48:40;15.10;;;6.00;;
35576;SDS011;21680;52.400;16.920;2023-04-12T01:54:03;9.40;;;5.50;;
35576;SDS011;21680;52.400;16.920;2023-04-12T01:56:37;14.50;;;5.90;;
35576;SDS011;21680;52.400;16.920;2023-04-12T01:59:05;11.50;;;5.10;;
35576;SDS011;21680;52.400;16.920;2023-04-12T02:01:31;12.30;;;5.70;;
35576;SDS011;21680;52.400;16.920;2023-04-12T02:03:57;11.50;;;5.50;;
35576;SDS011;21680;52.400;16.920;2023-04-12T02:06:24;10.50;;;5.20;;
35576;SDS011;21680;52.400;16.920;2023-04-12T02:08:58;15.80;;;6.10;;
35576;SDS011;21680;52.400;16.920;2023-04-12T02:11:26;16.60;;;5.50;;
35576;SDS011;21680;52.400;16.920;2023-04-12T02:13:52;13.50;;;5.20;;
35576;SDS011;21680;52.400;16.920;2023-04-12T02:16:17;13.60;;;5.20;;
35576;SDS011;21680;52.400;16.920;2023-04-12T02:18:44;12.70;;;5.20;;
35576;SDS011;21680;52.400;16.920;2023-04-12T02:21:10;11.40;;;5.90;;
35576;SDS011;21680;52.400;16.920;2023-04-12T02:23:35;10.40;;;5.70;;
35576;SDS011;21680;52.400;16.920;2023-04-12T02:26:01;11.00;;;5.70;;
35576;SDS011;21680;52.400;16.920;2023-04-12T02:28:27;15.60;;;5.90;;
35576;SDS011;21680;52.400;16.920;2023-04-12T02:30:52;12.60;;;6.20;;
35576;SDS011;21680;52.400;16.920;2023-04-12T02:33:18;13.30;;;6.40;;
35576;SDS011;21680;52.400;16.920;2023-04-12T02:35:45;13.40;;;4.90;;
35576;SDS011;21680;52.400;16.920;2023-04-12T02:38:11;10.70;;;5.60;;
35576;SDS011;21680;52.400;16.920;2023-04-12T02:40:37;7.20;;;5.10;;
35576;SDS011;21680;52.400;16.920;2023-04-12T02:43:04;14.80;;;7.90;;
35576;SDS011;21680;52.400;16.920;2023-04-12T02:45:30;11.50;;;5.70;;
35576;SDS011;21680;52.400;16.920;2023-04-12T02:47:55;8.40;;;4.80;;
35576;SDS011;21680;52.400;16.920;2023-04-12T02:50:20;14.60;;;6.00;;
35576;SDS011;21680;52.400;16.920;2023-04-12T02:52:46;12.20;;;5.80;;
35576;SDS011;21680;52.400;16.920;2023-04-12T02:55:11;10.30;;;4.90;;
35576;SDS011;21680;52.400;16.920;2023-04-12T02:57:36;10.50;;;5.40;;
35576;SDS011;21680;52.400;16.920;2023-04-12T03:00:02;18.70;;;6.50;;
35576;SDS011;21680;52.400;16.920;2023-04-12T03:04:58;15.20;;;5.60;;
35576;SDS011;21680;52.400;16.920;2023-04-12T03:07:23;11.80;;;6.50;;
35576;SDS011;21680;52.400;16.920;2023-04-12T03:09:49;18.70;;;6.50;;
35576;SDS011;21680;52.400;16.920;2023-04-12T03:12:15;21.20;;;6.40;;
35576;SDS011;21680;52.400;16.920;2023-04-12T03:14:40;16.00;;;6.90;;
35576;SDS011;21680;52.400;16.920;2023-04-12T03:17:06;13.60;;;6.60;;
35576;SDS011;21680;52.400;16.920;2023-04-12T03:19:32;13.60;;;6.00;;
35576;SDS011;21680;52.400;16.920;2023-04-12T03:21:59;13.30;;;6.20;;
35576;SDS011;21680;52.400;16.920;2023-04-12T03:24:25;21.20;;;7.40;;
35576;SDS011;21680;52.400;16.920;2023-04-12T03:26:51;13.40;;;5.90;;
35576;SDS011;21680;52.400;16.920;2023-04-12T03:29:16;12.00;;;5.50;;
35576;SDS011;21680;52.400;16.920;2023-04-12T03:31:42;13.10;;;5.70;;
35576;SDS011;21680;52.400;16.920;2023-04-12T03:34:07;16.30;;;6.60;;
35576;SDS011;21680;52.400;16.920;2023-04-12T03:36:33;16.30;;;6.50;;
35576;SDS011;21680;52.400;16.920;2023-04-12T03:38:58;10.60;;;6.00;;
35576;SDS011;21680;52.400;16.920;2023-04-12T03:41:24;16.50;;;6.60;;
35576;SDS011;21680;52.400;16.920;2023-04-12T03:43:50;15.60;;;7.50;;
35576;SDS011;21680;52.400;16.920;2023-04-12T03:46:16;22.80;;;7.60;;
35576;SDS011;21680;52.400;16.920;2023-04-12T03:48:41;14.60;;;6.90;;
35576;SDS011;21680;52.400;16.920;2023-04-12T03:51:08;10.20;;;6.40;;
35576;SDS011;21680;52.400;16.920;2023-04-12T03:53:36;18.30;;;7.20;;
35576;SDS011;21680;52.400;16.920;2023-04-12T03:56:02;14.50;;;6.60;;
35576;SDS011;21680;52.400;16.920;2023-04-12T03:58:27;14.30;;;6.90;;
35576;SDS011;21680;52.400;16.920;2023-04-12T04:00:53;13.80;;;6.60;;
35576;SDS011;21680;52.400;16.920;2023-04-12T04:03:18;16.90;;;7.30;;
35576;SDS011;21680;52.400;16.920;2023-04-12T04:05:43;15.90;;;6.90;;
35576;SDS011;21680;52.400;16.920;2023-04-12T04:08:09;15.30;;;7.40;;
35576;SDS011;21680;52.400;16.920;2023-04-12T04:10:34;13.10;;;6.70;;
35576;SDS011;21680;52.400;16.920;2023-04-12T04:13:00;23.10;;;9.20;;
35576;SDS011;21680;52.400;16.920;2023-04-12T04:15:26;15.30;;;8.50;;
35576;SDS011;21680;52.400;16.920;2023-04-12T04:17:51;15.50;;;7.40;;
35576;SDS011;21680;52.400;16.920;2023-04-12T04:20:17;15.20;;;7.90;;
35576;SDS011;21680;52.400;16.920;2023-04-12T04:22:43;14.80;;;9.40;;
35576;SDS011;21680;52.400;16.920;2023-04-12T04:25:13;16.90;;;9.10;;
35576;SDS011;21680;52.400;16.920;2023-04-12T04:27:42;20.20;;;7.20;;
35576;SDS011;21680;52.400;16.920;2023-04-12T04:30:09;17.10;;;9.10;;
35576;SDS011;21680;52.400;16.920;2023-04-12T04:32:35;22.10;;;8.10;;
35576;SDS011;21680;52.400;16.920;2023-04-12T04:35:01;25.20;;;9.60;;
35576;SDS011;21680;52.400;16.920;2023-04-12T04:37:27;16.50;;;7.80;;
35576;SDS011;21680;52.400;16.920;2023-04-12T04:39:53;16.90;;;8.50;;
35576;SDS011;21680;52.400;16.920;2023-04-12T04:42:18;16.50;;;9.80;;
35576;SDS011;21680;52.400;16.920;2023-04-12T04:44:45;14.80;;;8.40;;
35576;SDS011;21680;52.400;16.920;2023-04-12T04:47:12;21.40;;;8.20;;
35576;SDS011;21680;52.400;16.920;2023-04-12T04:49:37;17.70;;;9.20;;
35576;SDS011;21680;52.400;16.920;2023-04-12T04:52:03;16.40;;;8.40;;
35576;SDS011;21680;52.400;16.920;2023-04-12T04:54:28;18.30;;;8.50;;
35576;SDS011;21680;52.400;16.920;2023-04-12T04:56:55;16.50;;;8.90;;
35576;SDS011;21680;52.400;16.920;2023-04-12T04:59:21;19.50;;;8.00;;
35576;SDS011;21680;52.400;16.920;2023-04-12T05:01:48;17.00;;;7.80;;
35576;SDS011;21680;52.400;16.920;2023-04-12T05:04:13;20.30;;;8.20;;
35576;SDS011;21680;52.400;16.920;2023-04-12T05:06:39;12.50;;;7.50;;
35576;SDS011;21680;52.400;16.920;2023-04-12T05:09:04;18.40;;;7.90;;
35576;SDS011;21680;52.400;16.920;2023-04-12T05:11:29;16.60;;;7.30;;
35576;SDS011;21680;52.400;16.920;2023-04-12T05:13:55;18.80;;;7.90;;
35576;SDS011;21680;52.400;16.920;2023-04-12T05:16:20;17.50;;;7.50;;
35576;SDS011;21680;52.400;16.920;2023-04-12T05:18:45;17.90;;;7.80;;
35576;SDS011;21680;52.400;16.920;2023-04-12T05:21:10;17.40;;;8.40;;
35576;SDS011;21680;52.400;16.920;2023-04-12T05:23:36;13.80;;;7.20;;
35576;SDS011;21680;52.400;16.920;2023-04-12T05:26:07;15.50;;;8.70;;
35576;SDS011;21680;52.400;16.920;2023-04-12T05:28:32;24.40;;;9.70;;
35576;SDS011;21680;52.400;16.920;2023-04-12T05:30:57;17.50;;;8.20;;
35576;SDS011;21680;52.400;16.920;2023-04-12T05:33:23;20.00;;;8.50;;
35576;SDS011;21680;52.400;16.920;2023-04-12T05:35:48;13.00;;;7.10;;
35576;SDS011;21680;52.400;16.920;2023-04-12T05:38:13;14.50;;;7.50;;
35576;SDS011;21680;52.400;16.920;2023-04-12T05:40:39;15.00;;;8.40;;
35576;SDS011;21680;52.400;16.920;2023-04-12T05:43:07;20.70;;;8.50;;
35576;SDS011;21680;52.400;16.920;2023-04-12T05:45:36;24.00;;;8.30;;
35576;SDS011;21680;52.400;16.920;2023-04-12T05:48:02;16.00;;;7.70;;
35576;SDS011;21680;52.400;16.920;2023-04-12T05:50:27;11.30;;;7.50;;
35576;SDS011;21680;52.400;16.920;2023-04-12T05:52:53;22.50;;;9.50;;
35576;SDS011;21680;52.400;16.920;2023-04-12T05:55:19;18.10;;;8.90;;
35576;SDS011;21680;52.400;16.920;2023-04-12T05:57:45;21.10;;;9.60;;
35576;SDS011;21680;52.400;16.920;2023-04-12T06:00:12;20.20;;;9.70;;
35576;SDS011;21680;52.400;16.920;2023-04-12T06:02:41;16.00;;;8.40;;
35576;SDS011;21680;52.400;16.920;2023-04-12T06:05:07;17.30;;;8.70;;
35576;SDS011;21680;52.400;16.920;2023-04-12T06:07:33;19.20;;;9.10;;
35576;SDS011;21680;52.400;16.920;2023-04-12T06:09:59;17.60;;;7.70;;
35576;SDS011;21680;52.400;16.920;2023-04-12T06:12:24;23.30;;;8.80;;
35576;SDS011;21680;52.400;16.920;2023-04-12T06:14:49;15.70;;;8.50;;
35576;SDS011;21680;52.400;16.920;2023-04-12T06:17:15;16.70;;;8.70;;
35576;SDS011;21680;52.400;16.920;2023-04-12T06:19:40;13.50;;;7.70;;
35576;SDS011;21680;52.400;16.920;2023-04-12T06:22:05;19.30;;;7.40;;
35576;SDS011;21680;52.400;16.920;2023-04-12T06:24:31;18.30;;;9.10;;
35576;SDS011;21680;52.400;16.920;2023-04-12T06:26:56;15.80;;;8.20;;
35576;SDS011;21680;52.400;16.920;2023-04-12T06:29:21;18.50;;;9.40;;
35576;SDS011;21680;52.400;16.920;2023-04-12T06:31:47;19.20;;;9.10;;
35576;SDS011;21680;52.400;16.920;2023-04-12T06:34:12;16.20;;;9.10;;
35576;SDS011;21680;52.400;16.920;2023-04-12T06:36:37;15.30;;;8.50;;
35576;SDS011;21680;52.400;16.920;2023-04-12T06:52:04;23.60;;;10.90;;
35576;SDS011;21680;52.400;16.920;2023-04-12T06:54:30;19.60;;;10.70;;
35576;SDS011;21680;52.400;16.920;2023-04-12T06:56:55;21.30;;;9.50;;
35576;SDS011;21680;52.400;16.920;2023-04-12T06:59:21;22.90;;;10.30;;
35576;SDS011;21680;52.400;16.920;2023-04-12T07:01:47;22.30;;;10.80;;
35576;SDS011;21680;52.400;16.920;2023-04-12T07:04:12;19.30;;;10.80;;
35576;SDS011;21680;52.400;16.920;2023-04-12T07:06:37;21.20;;;11.20;;
35576;SDS011;21680;52.400;16.920;2023-04-12T07:09:03;19.60;;;10.90;;
35576;SDS011;21680;52.400;16.920;2023-04-12T07:11:28;20.30;;;11.60;;
35576;SDS011;21680;52.400;16.920;2023-04-12T07:13:55;24.90;;;11.70;;
35576;SDS011;21680;52.400;16.920;2023-04-12T07:16:23;26.50;;;12.00;;
35576;SDS011;21680;52.400;16.920;2023-04-12T07:18:48;16.90;;;10.90;;
35576;SDS011;21680;52.400;16.920;2023-04-12T07:21:14;23.50;;;11.20;;
35576;SDS011;21680;52.400;16.920;2023-04-12T07:23:41;20.90;;;10.70;;
35576;SDS011;21680;52.400;16.920;2023-04-12T07:26:07;20.90;;;11.20;;
35576;SDS011;21680;52.400;16.920;2023-04-12T07:28:32;17.90;;;10.60;;
35576;SDS011;21680;52.400;16.920;2023-04-12T07:30:59;18.10;;;9.60;;
35576;SDS011;21680;52.400;16.920;2023-04-12T07:33:26;18.20;;;10.80;;
35576;SDS011;21680;52.400;16.920;2023-04-12T07:35:52;17.20;;;9.40;;
35576;SDS011;21680;52.400;16.920;2023-04-12T07:38:17;23.80;;;11.20;;
35576;SDS011;21680;52.400;16.920;2023-04-12T07:40:42;21.20;;;10.40;;
35576;SDS011;21680;52.400;16.920;2023-04-12T07:43:07;27.60;;;11.20;;
35576;SDS011;21680;52.400;16.920;2023-04-12T07:45:34;14.60;;;9.70;;
35576;SDS011;21680;52.400;16.920;2023-04-12T07:48:01;16.20;;;10.00;;
35576;SDS011;21680;52.400;16.920;2023-04-12T07:50:27;16.20;;;9.30;;
35576;SDS011;21680;52.400;16.920;2023-04-12T07:52:56;14.20;;;9.00;;
35576;SDS011;21680;52.400;16.920;2023-04-12T07:55:40;12.20;;;9.30;;
35576;SDS011;21680;52.400;16.920;2023-04-12T07:58:06;14.20;;;9.20;;
35576;SDS011;21680;52.400;16.920;2023-04-12T08:00:31;14.00;;;9.30;;
35576;SDS011;21680;52.400;16.920;2023-04-12T08:02:58;17.60;;;8.80;;
35576;SDS011;21680;52.400;16.920;2023-04-12T08:05:24;13.70;;;9.00;;
35576;SDS011;21680;52.400;16.920;2023-04-12T08:07:49;13.80;;;7.70;;
35576;SDS011;21680;52.400;16.920;2023-04-12T08:10:14;23.70;;;12.30;;
35576;SDS011;21680;52.400;16.920;2023-04-12T08:12:39;12.80;;;9.00;;
35576;SDS011;21680;52.400;16.920;2023-04-12T08:15:05;13.30;;;8.30;;
35576;SDS011;21680;52.400;16.920;2023-04-12T08:17:31;16.60;;;8.40;;
35576;SDS011;21680;52.400;16.920;2023-04-12T08:19:56;17.80;;;9.40;;
35576;SDS011;21680;52.400;16.920;2023-04-12T08:22:21;15.10;;;9.50;;
35576;SDS011;21680;52.400;16.920;2023-04-12T08:24:47;17.90;;;8.40;;
35576;SDS011;21680;52.400;16.920;2023-04-12T08:27:13;19.70;;;9.40;;
35576;SDS011;21680;52.400;16.920;2023-04-12T08:29:38;20.10;;;10.90;;
35576;SDS011;21680;52.400;16.920;2023-04-12T08:32:04;19.00;;;9.90;;
35576;SDS011;21680;52.400;16.920;2023-04-12T08:34:29;19.50;;;10.00;;
35576;SDS011;21680;52.400;16.920;2023-04-12T08:36:55;19.50;;;9.50;;
35576;SDS011;21680;52.400;16.920;2023-04-12T08:39:23;21.40;;;10.80;;
35576;SDS011;21680;52.400;16.920;2023-04-12T08:41:48;20.30;;;10.10;;
35576;SDS011;21680;52.400;16.920;2023-04-12T08:44:14;15.50;;;9.00;;
35576;SDS011;21680;52.400;16.920;2023-04-12T08:46:41;16.00;;;8.10;;
35576;SDS011;21680;52.400;16.920;2023-04-12T08:49:07;16.40;;;9.50;;
35576;SDS011;21680;52.400;16.920;2023-04-12T08:51:32;13.90;;;7.80;;
35576;SDS011;21680;52.400;16.920;2023-04-12T08:53:59;10.80;;;6.80;;
35576;SDS011;21680;52.400;16.920;2023-04-12T08:56:26;11.30;;;6.80;;
35576;SDS011;21680;52.400;16.920;2023-04-12T08:58:54;13.20;;;7.10;;
35576;SDS011;21680;52.400;16.920;2023-04-12T09:01:20;11.40;;;7.30;;
35576;SDS011;21680;52.400;16.920;2023-04-12T09:03:45;13.40;;;6.90;;
35576;SDS011;21680;52.400;16.920;2023-04-12T09:06:11;10.20;;;6.70;;
35576;SDS011;21680;52.400;16.920;2023-04-12T09:08:49;12.70;;;7.30;;
35576;SDS011;21680;52.400;16.920;2023-04-12T09:11:25;11.50;;;7.80;;
35576;SDS011;21680;52.400;16.920;2023-04-12T09:13:52;9.30;;;5.80;;
35576;SDS011;21680;52.400;16.920;2023-04-12T09:19:00;10.60;;;6.80;;
35576;SDS011;21680;52.400;16.920;2023-04-12T09:21:27;14.40;;;7.60;;
35576;SDS011;21680;52.400;16.920;2023-04-12T09:26:33;12.30;;;6.30;;
35576;SDS011;21680;52.400;16.920;2023-04-12T09:29:02;12.10;;;6.40;;
35576;SDS011;21680;52.400;16.920;2023-04-12T09:31:30;8.90;;;5.80;;
35576;SDS011;21680;52.400;16.920;2023-04-12T09:34:06;12.30;;;6.10;;
35576;SDS011;21680;52.400;16.920;2023-04-12T09:36:37;8.70;;;5.60;;
35576;SDS011;21680;52.400;16.920;2023-04-12T09:39:04;11.60;;;5.90;;
35576;SDS011;21680;52.400;16.920;2023-04-12T09:41:30;7.80;;;5.10;;
35576;SDS011;21680;52.400;16.920;2023-04-12T09:44:00;10.80;;;4.90;;
35576;SDS011;21680;52.400;16.920;2023-04-12T09:46:27;9.30;;;4.60;;
35576;SDS011;21680;52.400;16.920;2023-04-12T09:48:56;7.80;;;5.10;;
35576;SDS011;21680;52.400;16.920;2023-04-12T09:53:57;7.40;;;3.80;;
35576;SDS011;21680;52.400;16.920;2023-04-12T09:56:23;4.60;;;3.20;;
35576;SDS011;21680;52.400;16.920;2023-04-12T09:58:52;8.40;;;3.20;;
35576;SDS011;21680;52.400;16.920;2023-04-12T10:01:19;6.70;;;3.50;;
35576;SDS011;21680;52.400;16.920;2023-04-12T10:03:47;4.50;;;3.00;;
35576;SDS011;21680;52.400;16.920;2023-04-12T10:06:12;5.90;;;3.40;;
35576;SDS011;21680;52.400;16.920;2023-04-12T10:08:39;4.40;;;3.40;;
35576;SDS011;21680;52.400;16.920;2023-04-12T10:11:06;9.60;;;3.20;;
35576;SDS011;21680;52.400;16.920;2023-04-12T10:13:33;3.60;;;2.70;;
35576;SDS011;21680;52.400;16.920;2023-04-12T10:16:00;4.80;;;3.00;;
35576;SDS011;21680;52.400;16.920;2023-04-12T10:18:30;5.30;;;3.50;;
35576;SDS011;21680;52.400;16.920;2023-04-12T10:20:59;5.10;;;3.50;;
35576;SDS011;21680;52.400;16.920;2023-04-12T10:23:25;7.90;;;4.30;;
35576;SDS011;21680;52.400;16.920;2023-04-12T10:25:51;8.00;;;4.30;;
35576;SDS011;21680;52.400;16.920;2023-04-12T10:28:20;6.90;;;3.90;;
35576;SDS011;21680;52.400;16.920;2023-04-12T10:30:47;7.00;;;3.80;;
35576;SDS011;21680;52.400;16.920;2023-04-12T10:33:14;7.00;;;4.20;;
35576;SDS011;21680;52.400;16.920;2023-04-12T10:38:20;12.40;;;5.30;;
35576;SDS011;21680;52.400;16.920;2023-04-12T10:43:42;5.60;;;4.00;;
35576;SDS011;21680;52.400;16.920;2023-04-12T10:49:11;24.40;;;10.50;;
35576;SDS011;21680;52.400;16.920;2023-04-12T10:51:37;17.60;;;6.50;;
35576;SDS011;21680;52.400;16.920;2023-04-12T10:58:57;5.30;;;3.50;;
35576;SDS011;21680;52.400;16.920;2023-04-12T11:01:24;5.30;;;3.30;;
35576;SDS011;21680;52.400;16.920;2023-04-12T11:04:09;9.80;;;3.80;;
35576;SDS011;21680;52.400;16.920;2023-04-12T11:11:56;7.50;;;4.60;;
35576;SDS011;21680;52.400;16.920;2023-04-12T11:14:25;7.50;;;4.80;;
35576;SDS011;21680;52.400;16.920;2023-04-12T11:19:31;11.30;;;4.00;;
35576;SDS011;21680;52.400;16.920;2023-04-12T11:21:58;4.90;;;4.00;;
35576;SDS011;21680;52.400;16.920;2023-04-12T11:24:25;10.70;;;4.00;;
35576;SDS011;21680;52.400;16.920;2023-04-12T11:26:51;8.50;;;4.40;;
35576;SDS011;21680;52.400;16.920;2023-04-12T11:29:24;9.60;;;4.90;;
35576;SDS011;21680;52.400;16.920;2023-04-12T11:31:52;8.80;;;4.70;;
35576;SDS011;21680;52.400;16.920;2023-04-12T11:34:19;8.50;;;4.80;;
35576;SDS011;21680;52.400;16.920;2023-04-12T11:36:47;7.00;;;3.80;;
35576;SDS011;21680;52.400;16.920;2023-04-12T11:39:16;12.70;;;4.70;;
35576;SDS011;21680;52.400;16.920;2023-04-12T11:41:48;11.30;;;6.30;;
35576;SDS011;21680;52.400;16.920;2023-04-12T11:44:14;10.90;;;6.20;;
35576;SDS011;21680;52.400;16.920;2023-04-12T11:46:47;7.10;;;4.70;;
35576;SDS011;21680;52.400;16.920;2023-04-12T11:49:16;6.60;;;4.70;;
35576;SDS011;21680;52.400;16.920;2023-04-12T11:51:43;6.90;;;4.50;;
35576;SDS011;21680;52.400;16.920;2023-04-12T11:54:10;8.40;;;5.50;;
35576;SDS011;21680;52.400;16.920;2023-04-12T11:56:37;13.10;;;5.70;;
35576;SDS011;21680;52.400;16.920;2023-04-12T11:59:04;9.50;;;5.50;;
35576;SDS011;21680;52.400;16.920;2023-04-12T12:01:29;11.50;;;4.80;;
35576;SDS011;21680;52.400;16.920;2023-04-12T12:03:56;8.40;;;5.00;;
35576;SDS011;21680;52.400;16.920;2023-04-12T12:06:23;7.30;;;5.20;;
35576;SDS011;21680;52.400;16.920;2023-04-12T12:08:49;6.40;;;4.60;;
35576;SDS011;21680;52.400;16.920;2023-04-12T12:11:15;8.00;;;3.90;;
35576;SDS011;21680;52.400;16.920;2023-04-12T12:13:47;18.20;;;5.10;;
35576;SDS011;21680;52.400;16.920;2023-04-12T12:16:14;5.70;;;3.90;;
35576;SDS011;21680;52.400;16.920;2023-04-12T12:18:41;5.50;;;3.50;;
35576;SDS011;21680;52.400;16.920;2023-04-12T12:21:09;6.30;;;4.30;;
35576;SDS011;21680;52.400;16.920;2023-04-12T12:23:35;7.90;;;3.90;;
35576;SDS011;21680;52.400;16.920;2023-04-12T12:26:02;7.10;;;4.80;;
35576;SDS011;21680;52.400;16.920;2023-04-12T12:28:30;6.60;;;3.40;;
35576;SDS011;21680;52.400;16.920;2023-04-12T12:30:55;7.50;;;4.10;;
35576;SDS011;21680;52.400;16.920;2023-04-12T12:33:22;6.10;;;3.70;;
35576;SDS011;21680;52.400;16.920;2023-04-12T12:35:55;5.70;;;3.90;;
35576;SDS011;21680;52.400;16.920;2023-04-12T12:38:21;7.40;;;3.40;;
35576;SDS011;21680;52.400;16.920;2023-04-12T12:40:47;7.90;;;3.50;;
35576;SDS011;21680;52.400;16.920;2023-04-12T12:43:16;6.90;;;3.40;;
35576;SDS011;21680;52.400;16.920;2023-04-12T12:48:09;7.00;;;3.70;;
35576;SDS011;21680;52.400;16.920;2023-04-12T12:50:34;4.30;;;3.00;;
35576;SDS011;21680;52.400;16.920;2023-04-12T12:53:00;6.10;;;3.80;;
35576;SDS011;21680;52.400;16.920;2023-04-12T12:55:27;7.80;;;3.60;;
35576;SDS011;21680;52.400;16.920;2023-04-12T12:57:54;4.90;;;3.80;;
35576;SDS011;21680;52.400;16.920;2023-04-12T13:00:21;4.40;;;3.30;;
35576;SDS011;21680;52.400;16.920;2023-04-12T13:02:48;3.60;;;3.10;;
35576;SDS011;21680;52.400;16.920;2023-04-12T13:05:13;5.70;;;3.50;;
35576;SDS011;21680;52.400;16.920;2023-04-12T13:07:39;4.50;;;3.10;;
35576;SDS011;21680;52.400;16.920;2023-04-12T13:10:04;6.20;;;4.20;;
35576;SDS011;21680;52.400;16.920;2023-04-12T13:12:32;5.60;;;4.00;;
35576;SDS011;21680;52.400;16.920;2023-04-12T13:14:59;6.20;;;3.50;;
35576;SDS011;21680;52.400;16.920;2023-04-12T13:17:25;3.60;;;3.30;;
35576;SDS011;21680;52.400;16.920;2023-04-12T13:19:54;4.80;;;2.80;;
35576;SDS011;21680;52.400;16.920;2023-04-12T13:22:20;7.40;;;4.00;;
35576;SDS011;21680;52.400;16.920;2023-04-12T13:24:45;3.90;;;3.20;;
35576;SDS011;21680;52.400;16.920;2023-04-12T13:27:12;3.90;;;3.30;;
35576;SDS011;21680;52.400;16.920;2023-04-12T13:29:38;11.40;;;3.40;;
35576;SDS011;21680;52.400;16.920;2023-04-12T13:32:03;4.80;;;3.00;;
35576;SDS011;21680;52.400;16.920;2023-04-12T13:34:29;3.60;;;2.70;;
35576;SDS011;21680;52.400;16.920;2023-04-12T13:36:55;4.40;;;2.80;;
35576;SDS011;21680;52.400;16.920;2023-04-12T13:39:20;4.40;;;2.80;;
35576;SDS011;21680;52.400;16.920;2023-04-12T13:41:45;3.90;;;2.80;;
35576;SDS011;21680;52.400;16.920;2023-04-12T13:44:11;3.10;;;2.30;;
35576;SDS011;21680;52.400;16.920;2023-04-12T13:46:36;3.10;;;2.20;;
35576;SDS011;21680;52.400;16.920;2023-04-12T13:49:01;3.60;;;2.50;;
35576;SDS011;21680;52.400;16.920;2023-04-12T13:51:27;4.60;;;1.80;;
35576;SDS011;21680;52.400;16.920;2023-04-12T13:53:53;3.70;;;2.50;;
35576;SDS011;21680;52.400;16.920;2023-04-12T13:56:19;3.90;;;2.10;;
35576;SDS011;21680;52.400;16.920;2023-04-12T13:58:44;2.70;;;2.00;;
35576;SDS011;21680;52.400;16.920;2023-04-12T14:01:10;2.50;;;1.70;;
35576;SDS011;21680;52.400;16.920;2023-04-12T14:03:37;2.40;;;2.10;;
35576;SDS011;21680;52.400;16.920;2023-04-12T14:06:03;3.40;;;2.10;;
35576;SDS011;21680;52.400;16.920;2023-04-12T14:08:28;2.30;;;1.50;;
35576;SDS011;21680;52.400;16.920;2023-04-12T14:10:54;3.70;;;2.10;;
35576;SDS011;21680;52.400;16.920;2023-04-12T14:13:23;3.10;;;1.90;;
35576;SDS011;21680;52.400;16.920;2023-04-12T14:15:50;3.30;;;1.80;;
35576;SDS011;21680;52.400;16.920;2023-04-12T14:18:16;3.30;;;1.90;;
35576;SDS011;21680;52.400;16.920;2023-04-12T14:20:42;1.80;;;1.60;;
35576;SDS011;21680;52.400;16.920;2023-04-12T14:23:10;2.00;;;1.50;;
35576;SDS011;21680;52.400;16.920;2023-04-12T14:25:37;3.60;;;2.10;;
35576;SDS011;21680;52.400;16.920;2023-04-12T14:28:03;2.60;;;1.70;;
35576;SDS011;21680;52.400;16.920;2023-04-12T14:30:29;3.80;;;1.50;;
35576;SDS011;21680;52.400;16.920;2023-04-12T14:32:54;1.90;;;1.70;;
35576;SDS011;21680;52.400;16.920;2023-04-12T14:35:19;2.40;;;1.80;;
35576;SDS011;21680;52.400;16.920;2023-04-12T14:37:45;3.80;;;2.10;;
35576;SDS011;21680;52.400;16.920;2023-04-12T14:40:10;3.30;;;2.10;;
35576;SDS011;21680;52.400;16.920;2023-04-12T14:42:36;2.90;;;2.20;;
35576;SDS011;21680;52.400;16.920;2023-04-12T14:45:01;3.70;;;2.30;;
35576;SDS011;21680;52.400;16.920;2023-04-12T14:47:29;4.90;;;1.90;;
35576;SDS011;21680;52.400;16.920;2023-04-12T14:49:54;2.50;;;1.80;;
35576;SDS011;21680;52.400;16.920;2023-04-12T14:52:19;3.10;;;2.00;;
35576;SDS011;21680;52.400;16.920;2023-04-12T14:54:45;4.20;;;1.80;;
35576;SDS011;21680;52.400;16.920;2023-04-12T14:57:10;4.00;;;2.30;;
35576;SDS011;21680;52.400;16.920;2023-04-12T14:59:36;2.20;;;1.80;;
35576;SDS011;21680;52.400;16.920;2023-04-12T15:02:01;2.60;;;2.10;;
35576;SDS011;21680;52.400;16.920;2023-04-12T15:04:26;4.50;;;2.00;;
35576;SDS011;21680;52.400;16.920;2023-04-12T15:06:52;2.60;;;2.30;;
35576;SDS011;21680;52.400;16.920;2023-04-12T15:09:17;2.40;;;2.20;;
35576;SDS011;21680;52.400;16.920;2023-04-12T15:11:42;2.20;;;1.80;;
35576;SDS011;21680;52.400;16.920;2023-04-12T15:14:10;4.30;;;1.80;;
35576;SDS011;21680;52.400;16.920;2023-04-12T15:16:41;2.60;;;1.90;;
35576;SDS011;21680;52.400;16.920;2023-04-12T15:19:07;2.80;;;1.60;;